GLD1794 TLPL-TLPC
Flight info
| Callsign | GLD1794 |
|---|---|
| Flight time | N/A |
| Altitude | 6000 |
| Route | BNE DCT SAVEL DCT PUREX |
| Aircraft | C172/L-SFG/C |
Departure
| Time | N/A |
|---|---|
| Airport | Hewanorra International Airport (TLPL) |
Arrival
| Time | 2026-05-03 21:09 |
|---|---|
| Airport | George F. L. Charles Airport (TLPC) |
| Time | Latitude | Longitude | Altitude | Speed | Heading |
|---|---|---|---|---|---|
| 2026-05-03 20:50 | 13.73581 | -60.95117 | 11 ft | 0 kts | 147° |
| 2026-05-03 20:55 | 13.73570 | -60.95103 | 11 ft | 5 kts | 141° |
| 2026-05-03 20:55 | 13.73508 | -60.95135 | 11 ft | 13 kts | 213° |
| 2026-05-03 20:55 | 13.73430 | -60.95156 | 11 ft | 11 kts | 182° |
| 2026-05-03 20:55 | 13.73353 | -60.95149 | 10 ft | 10 kts | 145° |
| 2026-05-03 20:56 | 13.73337 | -60.95080 | 10 ft | 20 kts | 91° |
| 2026-05-03 20:56 | 13.73340 | -60.94813 | 34 ft | 48 kts | 87° |
| 2026-05-03 20:56 | 13.73332 | -60.94433 | 109 ft | 58 kts | 91° |
| 2026-05-03 20:56 | 13.73105 | -60.94056 | 178 ft | 80 kts | 145° |
| 2026-05-03 20:57 | 13.72485 | -60.94145 | 252 ft | 110 kts | 212° |
| 2026-05-03 20:57 | 13.72205 | -60.94928 | 345 ft | 125 kts | 264° |
| 2026-05-03 20:57 | 13.72282 | -60.95816 | 421 ft | 125 kts | 289° |
| 2026-05-03 20:57 | 13.72575 | -60.96642 | 510 ft | 125 kts | 296° |
| 2026-05-03 20:58 | 13.72915 | -60.97458 | 593 ft | 125 kts | 300° |
| 2026-05-03 20:58 | 13.73296 | -60.98286 | 599 ft | 131 kts | 300° |
| 2026-05-03 20:58 | 13.73686 | -60.99152 | 595 ft | 135 kts | 300° |
| 2026-05-03 20:58 | 13.74076 | -61.00041 | 599 ft | 138 kts | 300° |
| 2026-05-03 20:59 | 13.74473 | -61.00953 | 602 ft | 141 kts | 300° |
| 2026-05-03 20:59 | 13.74874 | -61.01884 | 600 ft | 141 kts | 300° |
| 2026-05-03 20:59 | 13.75286 | -61.02777 | 598 ft | 138 kts | 304° |
| 2026-05-03 20:59 | 13.75788 | -61.03592 | 595 ft | 133 kts | 312° |
| 2026-05-03 21:00 | 13.76307 | -61.04374 | 597 ft | 132 kts | 310° |
| 2026-05-03 21:00 | 13.76678 | -61.04875 | 598 ft | 134 kts | 312° |
| 2026-05-03 21:00 | 13.77422 | -61.05910 | 596 ft | 134 kts | 312° |
| 2026-05-03 21:00 | 13.77985 | -61.06665 | 592 ft | 130 kts | 323° |
| 2026-05-03 21:01 | 13.78655 | -61.07284 | 593 ft | 129 kts | 326° |
| 2026-05-03 21:01 | 13.79348 | -61.07838 | 593 ft | 126 kts | 338° |
| 2026-05-03 21:01 | 13.80135 | -61.08251 | 594 ft | 128 kts | 344° |
| 2026-05-03 21:01 | 13.80973 | -61.08517 | 598 ft | 126 kts | 355° |
| 2026-05-03 21:02 | 13.81841 | -61.08703 | 600 ft | 129 kts | 359° |
| 2026-05-03 21:02 | 13.82745 | -61.08801 | 604 ft | 131 kts | 0° |
| 2026-05-03 21:02 | 13.83661 | -61.08870 | 600 ft | 130 kts | 6° |
| 2026-05-03 21:02 | 13.84538 | -61.08840 | 601 ft | 125 kts | 13° |
| 2026-05-03 21:03 | 13.85389 | -61.08777 | 597 ft | 120 kts | 14° |
| 2026-05-03 21:03 | 13.86226 | -61.08718 | 610 ft | 123 kts | 12° |
| 2026-05-03 21:03 | 13.87094 | -61.08618 | 609 ft | 128 kts | 18° |
| 2026-05-03 21:03 | 13.87941 | -61.08301 | 601 ft | 131 kts | 32° |
| 2026-05-03 21:04 | 13.88766 | -61.07889 | 601 ft | 131 kts | 31° |
| 2026-05-03 21:04 | 13.89588 | -61.07487 | 601 ft | 130 kts | 31° |
| 2026-05-03 21:04 | 13.90398 | -61.07096 | 598 ft | 128 kts | 31° |
| 2026-05-03 21:04 | 13.91192 | -61.06700 | 601 ft | 127 kts | 31° |
| 2026-05-03 21:05 | 13.91966 | -61.06292 | 596 ft | 123 kts | 33° |
| 2026-05-03 21:05 | 13.92746 | -61.05908 | 599 ft | 126 kts | 32° |
| 2026-05-03 21:05 | 13.93529 | -61.05494 | 596 ft | 126 kts | 34° |
| 2026-05-03 21:05 | 13.94315 | -61.05089 | 602 ft | 126 kts | 32° |
| 2026-05-03 21:06 | 13.95079 | -61.04666 | 602 ft | 127 kts | 37° |
| 2026-05-03 21:06 | 13.95810 | -61.04157 | 602 ft | 127 kts | 39° |
| 2026-05-03 21:06 | 13.96546 | -61.03667 | 607 ft | 124 kts | 39° |
| 2026-05-03 21:06 | 13.97278 | -61.03206 | 606 ft | 122 kts | 40° |
| 2026-05-03 21:07 | 13.98023 | -61.02774 | 602 ft | 123 kts | 36° |
| 2026-05-03 21:07 | 13.98815 | -61.02434 | 597 ft | 120 kts | 30° |
| 2026-05-03 21:07 | 13.99502 | -61.02226 | 586 ft | 90 kts | 27° |
| 2026-05-03 21:07 | 14.00043 | -61.02128 | 583 ft | 73 kts | 26° |
| 2026-05-03 21:08 | 14.00533 | -61.02021 | 492 ft | 72 kts | 33° |
| 2026-05-03 21:08 | 14.00963 | -61.01738 | 406 ft | 71 kts | 49° |
| 2026-05-03 21:08 | 14.01341 | -61.01384 | 311 ft | 74 kts | 58° |
| 2026-05-03 21:08 | 14.01570 | -61.00974 | 207 ft | 56 kts | 76° |
| 2026-05-03 21:09 | 14.01673 | -61.00598 | 117 ft | 56 kts | 82° |
| 2026-05-03 21:09 | 14.01771 | -61.00201 | 52 ft | 57 kts | 84° |
| 2026-05-03 21:09 | 14.01869 | -60.99819 | 11 ft | 52 kts | 83° |
| 2026-05-03 21:09 | 14.01943 | -60.99515 | 3 ft | 25 kts | 69° |
| 2026-05-03 21:10 | 14.01953 | -60.99495 | 3 ft | 2 kts | 56° |
| 2026-05-03 21:10 | 14.01959 | -60.99489 | 3 ft | 0 kts | 48° |
| 2026-05-03 21:10 | 14.01973 | -60.99483 | 3 ft | 3 kts | 356° |
| 2026-05-03 21:10 | 14.01986 | -60.99495 | 3 ft | 2 kts | 271° |
| 2026-05-03 21:11 | 14.01994 | -60.99538 | 4 ft | 8 kts | 279° |
| 2026-05-03 21:11 | 14.02016 | -60.99577 | 4 ft | 6 kts | 331° |
| 2026-05-03 21:11 | 14.02028 | -60.99568 | 4 ft | 2 kts | 118° |
| 2026-05-03 21:11 | 14.02025 | -60.99566 | 4 ft | 0 kts | 168° |